Time;durP1;ratioP1;P1;durP2;ratioP2;P2;SDS_P1;SDS_P2;PMS_P1;PMS_P2;Temp;Humidity;BMP_temperature;BMP_pressure;BME280_temperature;BME280_humidity;BME280_pressure;Samples;Min_cycle;Max_cycle;Signal;HPM_P1;HPM_P2
2021/12/28 00:01:31;;;;;;;15.13;6.22;;;;;;;9.46;100.00;99303.56;5039741;28;20139;-74
2021/12/28 00:04:04;;;;;;;18.88;7.35;;;;;;;9.48;100.00;99301.16;5040937;28;20045;-74
2021/12/28 00:06:31;;;;;;;19.00;6.80;;;;;;;9.47;100.00;99303.16;5033843;28;20405;-73
2021/12/28 00:08:58;;;;;;;16.00;7.30;;;;;;;9.47;100.00;99303.16;5032405;28;20045;-74
2021/12/28 00:11:24;;;;;;;18.40;6.72;;;;;;;9.49;100.00;99306.25;5036642;28;20132;-75
2021/12/28 00:13:58;;;;;;;17.33;7.20;;;;;;;9.48;100.00;99296.41;5029486;28;20128;-74
2021/12/28 00:16:33;;;;;;;17.65;6.70;;;;;;;9.49;100.00;99295.22;5041100;28;20187;-75
2021/12/28 00:19:01;;;;;;;18.10;6.78;;;;;;;9.46;100.00;99293.31;5033298;28;20046;-75
2021/12/28 00:21:28;;;;;;;17.30;6.88;;;;;;;9.47;100.00;99289.34;5030627;28;20080;-74
2021/12/28 00:23:54;;;;;;;17.67;6.90;;;;;;;9.49;100.00;99280.66;5037701;28;20053;-75
2021/12/28 00:26:22;;;;;;;15.43;5.85;;;;;;;9.50;100.00;99279.44;5040394;28;20041;-75
2021/12/28 00:28:50;;;;;;;12.30;5.15;;;;;;;9.50;100.00;99285.75;5031374;28;21117;-75
2021/12/28 00:31:17;;;;;;;17.27;6.03;;;;;;;9.53;100.00;99275.81;5028136;28;20081;-74
2021/12/28 00:33:45;;;;;;;13.52;5.85;;;;;;;9.57;100.00;99271.78;5037202;28;20162;-74
2021/12/28 00:36:12;;;;;;;19.90;5.85;;;;;;;9.57;100.00;99266.28;5037745;28;20407;-76
2021/12/28 00:38:39;;;;;;;16.88;6.20;;;;;;;9.61;100.00;99269.75;5032821;28;20765;-75
2021/12/28 00:41:06;;;;;;;18.05;6.57;;;;;;;9.65;100.00;99262.16;5038491;28;20049;-75
2021/12/28 00:43:34;;;;;;;14.43;6.20;;;;;;;9.68;100.00;99266.84;5041850;28;20053;-75
2021/12/28 00:46:01;;;;;;;13.32;5.32;;;;;;;9.66;100.00;99263.72;5034114;28;20473;-74
2021/12/28 00:48:28;;;;;;;13.07;4.80;;;;;;;9.66;100.00;99257.44;5040814;28;20049;-74
2021/12/28 00:50:55;;;;;;;16.02;5.32;;;;;;;9.62;100.00;99251.97;5031364;28;20052;-74
2021/12/28 00:53:22;;;;;;;17.23;5.20;;;;;;;9.62;100.00;99253.97;5036441;28;20061;-74
2021/12/28 00:55:49;;;;;;;10.40;4.13;;;;;;;9.58;100.00;99254.03;5029973;28;20048;-74
2021/12/28 00:58:16;;;;;;;14.98;5.30;;;;;;;9.59;100.00;99244.53;5042398;28;20049;-74
2021/12/28 01:00:45;;;;;;;12.27;4.95;;;;;;;9.57;100.00;99241.44;5041748;28;20057;-75
2021/12/28 01:03:13;;;;;;;13.18;4.43;;;;;;;9.50;100.00;99236.06;5031214;28;20514;-74
2021/12/28 01:05:41;;;;;;;6.38;2.70;;;;;;;9.56;100.00;99239.88;5030133;28;20161;-73
2021/12/28 01:08:08;;;;;;;11.77;4.28;;;;;;;9.59;100.00;99241.75;5048704;28;20049;-74
2021/12/28 01:10:39;;;;;;;12.10;4.18;;;;;;;9.62;100.00;99240.91;5029698;28;20119;-73
2021/12/28 01:13:06;;;;;;;10.93;4.20;;;;;;;9.62;100.00;99232.63;5034176;28;20055;-75
2021/12/28 01:15:33;;;;;;;10.45;3.83;;;;;;;9.62;100.00;99235.41;5032082;28;20532;-76
2021/12/28 01:18:00;;;;;;;9.75;4.03;;;;;;;9.60;100.00;99228.75;5031334;28;20076;-75
2021/12/28 01:20:27;;;;;;;12.40;4.65;;;;;;;9.50;100.00;99216.72;5028502;28;20053;-74
2021/12/28 01:22:54;;;;;;;11.88;4.55;;;;;;;9.44;100.00;99221.19;5045267;28;20077;-75
2021/12/28 01:25:21;;;;;;;13.10;4.55;;;;;;;9.45;100.00;99219.22;5044875;28;20452;-76
2021/12/28 01:27:48;;;;;;;11.18;4.15;;;;;;;9.41;100.00;99219.28;5028218;28;20091;-74
2021/12/28 01:30:18;;;;;;;12.15;4.22;;;;;;;9.38;100.00;99225.63;5031558;28;20128;-74
2021/12/28 01:32:45;;;;;;;15.88;5.55;;;;;;;9.32;100.00;99221.03;5035338;28;20076;-75
2021/12/28 01:35:13;;;;;;;18.38;5.97;;;;;;;9.28;100.00;99218.34;5030223;28;20463;-75
2021/12/28 01:37:40;;;;;;;12.82;4.38;;;;;;;9.21;100.00;99220.47;5030011;28;20133;-76
2021/12/28 01:40:10;;;;;;;14.63;4.93;;;;;;;9.17;100.00;99228.81;5029886;28;20168;-76
2021/12/28 01:43:10;;;;;;;19.48;5.93;;;;;;;9.12;100.00;99221.03;5036223;28;20048;-75
2021/12/28 01:45:41;;;;;;;8.93;3.85;;;;;;;9.10;100.00;99222.63;5036272;28;20053;-75
2021/12/28 01:48:11;;;;;;;14.80;4.85;;;;;;;9.07;100.00;99229.00;5029721;28;20101;-76
2021/12/28 01:50:39;;;;;;;12.60;4.68;;;;;;;9.06;100.00;99219.97;5043064;28;20053;-75
2021/12/28 01:53:07;;;;;;;13.60;4.90;;;;;;;9.08;100.00;99227.81;5028348;28;20053;-75
2021/12/28 01:55:37;;;;;;;13.40;5.30;;;;;;;9.03;100.00;99222.78;5033808;28;20148;-74
2021/12/28 01:58:04;;;;;;;14.98;4.93;;;;;;;8.98;100.00;99228.78;5030515;28;20069;-75
2021/12/28 02:00:31;;;;;;;16.42;4.95;;;;;;;8.96;100.00;99231.19;5035777;28;20052;-75
2021/12/28 02:02:59;;;;;;;14.57;5.00;;;;;;;8.93;100.00;99226.50;5028947;28;20045;-74
2021/12/28 02:05:26;;;;;;;16.35;4.85;;;;;;;8.94;100.00;99220.56;5028651;28;20089;-74
2021/12/28 02:07:53;;;;;;;18.25;4.90;;;;;;;8.98;100.00;99224.03;5032989;28;20052;-76
2021/12/28 02:10:19;;;;;;;22.25;5.88;;;;;;;8.97;100.00;99213.44;5031604;28;20049;-75
2021/12/28 02:12:46;;;;;;;16.75;4.88;;;;;;;8.95;100.00;99213.09;5035635;28;20132;-75
2021/12/28 02:15:14;;;;;;;17.70;4.90;;;;;;;8.99;100.00;99209.06;5042793;28;20050;-76
2021/12/28 02:17:40;;;;;;;12.40;4.10;;;;;;;9.01;100.00;99216.91;5036734;28;20045;-75
2021/12/28 02:20:11;;;;;;;15.70;4.25;;;;;;;8.99;100.00;99220.09;5033373;28;20481;-76
2021/12/28 02:22:38;;;;;;;13.70;5.20;;;;;;;8.98;100.00;99218.53;5034621;28;20049;-74
2021/12/28 02:25:05;;;;;;;14.85;4.10;;;;;;;9.02;100.00;99210.19;5032396;28;20049;-73
2021/12/28 02:27:32;;;;;;;15.40;4.65;;;;;;;9.00;100.00;99201.56;5028795;28;20528;-75
2021/12/28 02:29:59;;;;;;;16.25;4.60;;;;;;;9.00;100.00;99201.56;5038578;28;20056;-75
2021/12/28 02:32:28;;;;;;;18.75;4.28;;;;;;;9.03;100.00;99204.25;5035530;28;20053;-76
2021/12/28 02:34:55;;;;;;;19.27;4.20;;;;;;;9.02;100.00;99197.19;5035766;28;20052;-75
2021/12/28 02:37:23;;;;;;;16.98;4.57;;;;;;;9.01;100.00;99198.38;5049819;28;20128;-74
2021/12/28 02:39:51;;;;;;;14.35;3.80;;;;;;;9.02;100.00;99191.66;5037901;28;20060;-77
2021/12/28 02:42:20;;;;;;;18.48;4.03;;;;;;;9.02;100.00;99191.66;5034710;28;20144;-75
2021/12/28 02:44:56;;;;;;;22.10;4.70;;;;;;;9.04;100.00;99185.72;5028352;28;20433;-75
2021/12/28 02:47:23;;;;;;;15.57;4.28;;;;;;;9.05;100.00;99179.75;5036849;28;20049;-75
2021/12/28 02:49:50;;;;;;;19.02;4.00;;;;;;;9.04;100.00;99178.22;5028163;28;20056;-74
2021/12/28 02:52:17;;;;;;;16.13;4.10;;;;;;;9.08;100.00;99180.91;5034195;28;20136;-76
2021/12/28 02:54:43;;;;;;;15.95;4.03;;;;;;;9.13;100.00;99181.19;5038784;28;20081;-75
2021/12/28 02:57:10;;;;;;;17.30;4.10;;;;;;;9.12;100.00;99168.63;5033463;28;20140;-74
2021/12/28 02:59:45;;;;;;;34.30;6.68;;;;;;;9.13;100.00;99172.94;5026683;28;20041;-75
2021/12/28 03:02:12;;;;;;;14.10;3.95;;;;;;;9.09;100.00;99161.19;5026778;28;20045;-74
2021/12/28 03:04:39;;;;;;;15.55;3.70;;;;;;;9.10;100.00;99171.00;5030610;28;20049;-74
2021/12/28 03:07:05;;;;;;;15.13;3.97;;;;;;;9.06;100.00;99162.03;5036819;28;20091;-72
2021/12/28 03:09:32;;;;;;;12.18;3.60;;;;;;;9.04;100.00;99166.41;5030873;28;20052;-74
2021/12/28 03:11:58;;;;;;;13.52;3.65;;;;;;;8.99;100.00;99172.41;5040856;28;20484;-74
2021/12/28 03:14:25;;;;;;;13.90;3.58;;;;;;;8.94;100.00;99167.41;5043125;28;20063;-74
2021/12/28 03:16:51;;;;;;;15.52;3.75;;;;;;;8.91;100.00;99159.97;5031131;28;20049;-74
2021/12/28 03:19:18;;;;;;;15.25;3.67;;;;;;;8.90;100.00;99156.44;5038121;28;20049;-75
2021/12/28 03:21:46;;;;;;;12.32;3.38;;;;;;;8.86;100.00;99155.72;5042747;28;20140;-75
2021/12/28 03:24:13;;;;;;;14.20;3.97;;;;;;;8.80;100.00;99145.59;5031383;28;20053;-75
2021/12/28 03:26:40;;;;;;;18.98;3.30;;;;;;;8.77;100.00;99144.47;5038343;28;20806;-74
2021/12/28 03:29:08;;;;;;;11.68;3.35;;;;;;;8.72;100.00;99139.44;5031609;28;20506;-74
2021/12/28 03:31:35;;;;;;;15.95;3.55;;;;;;;8.67;100.00;99139.91;5029748;28;20076;-74
2021/12/28 03:34:02;;;;;;;20.95;3.20;;;;;;;8.65;100.00;99133.28;5036745;28;20547;-74
2021/12/28 03:36:29;;;;;;;14.38;3.97;;;;;;;8.64;100.00;99132.50;5061870;28;20049;-75
2021/12/28 03:38:58;;;;;;;21.80;4.72;;;;;;;8.67;100.00;99131.66;5030312;28;20053;-75
2021/12/28 03:41:26;;;;;;;19.45;4.13;;;;;;;8.65;100.00;99123.03;5029707;28;20164;-74
2021/12/28 03:43:54;;;;;;;16.90;3.90;;;;;;;8.66;100.00;99127.34;5041002;28;20053;-74
2021/12/28 03:46:23;;;;;;;17.35;3.42;;;;;;;8.59;100.00;99115.66;5036414;28;20061;-74
2021/12/28 03:48:50;;;;;;;21.67;4.78;;;;;;;8.56;100.00;99114.53;5040824;28;20045;-74
2021/12/28 03:51:17;;;;;;;17.88;3.85;;;;;;;8.53;100.00;99109.88;5029024;28;20072;-74
2021/12/28 03:53:46;;;;;;;18.70;3.92;;;;;;;8.55;100.00;99106.69;5038333;28;20049;-74
2021/12/28 03:56:13;;;;;;;25.55;4.55;;;;;;;8.54;100.00;99100.38;5032878;28;20084;-73
2021/12/28 03:58:41;;;;;;;22.70;3.67;;;;;;;8.55;100.00;99103.94;5029832;28;20707;-75
2021/12/28 04:01:10;;;;;;;16.45;4.00;;;;;;;8.62;100.00;99104.59;5033107;28;20128;-73
2021/12/28 04:03:37;;;;;;;21.50;3.72;;;;;;;8.62;100.00;99104.59;5029815;28;20049;-75
2021/12/28 04:06:08;;;;;;;17.70;4.35;;;;;;;8.65;100.00;99102.94;5048810;28;20055;-74
2021/12/28 04:08:36;;;;;;;19.58;4.03;;;;;;;8.67;100.00;99100.56;5050682;28;20041;-73
2021/12/28 04:13:44;;;;;;;21.92;3.60;;;;;;;8.64;100.00;99098.66;5042435;28;20151;-74
2021/12/28 04:16:11;;;;;;;25.73;3.95;;;;;;;8.58;100.00;99100.34;5035081;28;20076;-74
2021/12/28 04:18:37;;;;;;;18.02;3.75;;;;;;;8.55;100.00;99092.91;5037557;28;20055;-75
2021/12/28 04:21:04;;;;;;;12.45;2.58;;;;;;;8.63;100.00;99092.34;5033318;28;20084;-72
2021/12/28 04:23:31;;;;;;;28.90;4.40;;;;;;;8.75;100.00;99093.69;5029085;28;20436;-74
2021/12/28 04:25:58;;;;;;;16.10;3.80;;;;;;;8.85;100.00;99095.47;5032151;28;20052;-75
2021/12/28 04:28:24;;;;;;;21.83;4.20;;;;;;;8.86;100.00;99095.06;5029342;28;20498;-74
2021/12/28 04:30:51;;;;;;;12.63;2.25;;;;;;;8.92;100.00;99093.34;5033824;28;20139;-74
2021/12/28 04:33:18;;;;;;;17.05;3.63;;;;;;;9.02;100.00;99091.56;5028447;28;20424;-74
2021/12/28 04:35:44;;;;;;;29.30;4.13;;;;;;;9.04;100.00;99081.66;5046881;28;20051;-74
2021/12/28 04:38:11;;;;;;;25.25;4.72;;;;;;;9.04;100.00;99084.41;5048924;28;20049;-74
2021/12/28 04:40:38;;;;;;;20.60;3.67;;;;;;;9.12;100.00;99074.03;5049386;28;20059;-74
2021/12/28 04:43:06;;;;;;;17.15;3.58;;;;;;;9.16;100.00;99078.25;5046179;28;20044;-73
2021/12/28 04:45:37;;;;;;;14.18;3.38;;;;;;;9.20;100.00;99072.66;5048124;28;20509;-74
2021/12/28 04:48:05;;;;;;;21.95;3.50;;;;;;;9.21;100.00;99077.00;5035471;28;20053;-74
2021/12/28 04:50:37;;;;;;;21.88;4.57;;;;;;;9.27;100.00;99062.25;5045628;28;20049;-74
2021/12/28 04:53:09;;;;;;;23.55;3.75;;;;;;;9.36;100.00;99067.19;5044202;28;20051;-75
2021/12/28 04:55:43;;;;;;;14.90;3.83;;;;;;;9.39;100.00;99061.56;5042712;28;20140;-74
2021/12/28 04:58:10;;;;;;;19.42;4.22;;;;;;;9.46;100.00;99055.13;5029065;28;20067;-75
2021/12/28 05:00:38;;;;;;;31.40;3.95;;;;;;;9.50;100.00;99059.38;5028761;28;20072;-74
2021/12/28 05:03:05;;;;;;;6.70;1.85;;;;;;;9.57;100.00;99067.47;5038190;28;20049;-75
2021/12/28 05:05:32;;;;;;;19.35;3.55;;;;;;;9.67;100.00;99058.16;5034960;28;20046;-75
2021/12/28 05:07:58;;;;;;;6.10;1.15;;;;;;;9.74;100.00;99058.00;5035624;28;20160;-74
2021/12/28 05:10:25;;;;;;;31.83;4.38;;;;;;;9.84;100.00;99064.47;5028697;28;20057;-74
2021/12/28 05:12:52;;;;;;;22.75;3.60;;;;;;;9.91;100.00;99053.25;5035779;28;20049;-74
2021/12/28 05:15:18;;;;;;;16.00;3.60;;;;;;;9.90;100.00;99044.19;5034205;28;20049;-74
2021/12/28 05:17:45;;;;;;;31.25;4.75;;;;;;;9.88;100.00;99051.34;5043169;28;20084;-75
2021/12/28 05:20:12;;;;;;;17.23;3.75;;;;;;;9.83;100.00;99043.59;5028025;28;20136;-75
2021/12/28 05:22:39;;;;;;;18.00;3.22;;;;;;;9.81;100.00;99046.00;5036308;28;20128;-74
2021/12/28 05:25:07;;;;;;;10.98;2.65;;;;;;;9.81;100.00;99040.47;5031481;28;20072;-75
2021/12/28 05:27:34;;;;;;;16.83;3.78;;;;;;;9.87;100.00;99047.03;5037391;28;20053;-74
2021/12/28 05:30:02;;;;;;;20.35;4.43;;;;;;;9.86;100.00;99051.00;5028546;28;20660;-74
2021/12/28 05:32:28;;;;;;;26.42;4.20;;;;;;;9.87;100.00;99042.28;5034455;28;20574;-74
2021/12/28 05:34:55;;;;;;;20.08;3.78;;;;;;;9.85;100.00;99033.66;5043652;28;20208;-74
2021/12/28 05:37:21;;;;;;;27.02;3.60;;;;;;;9.89;100.00;99034.34;5035743;28;20053;-74
2021/12/28 05:39:49;;;;;;;19.25;3.13;;;;;;;9.88;100.00;99035.56;5028051;28;20049;-74
2021/12/28 05:42:15;;;;;;;20.65;3.83;;;;;;;9.94;100.00;99033.03;5027282;28;20063;-74
2021/12/28 05:44:42;;;;;;;18.52;3.10;;;;;;;9.94;100.00;99025.53;5031404;28;20147;-75
2021/12/28 05:47:09;;;;;;;15.90;2.92;;;;;;;9.96;100.00;99017.59;5026275;28;20065;-75
2021/12/28 05:49:35;;;;;;;17.10;3.45;;;;;;;10.00;100.00;99018.25;5028231;28;20051;-75
2021/12/28 05:52:02;;;;;;;18.92;4.22;;;;;;;10.02;100.00;99015.06;5050219;28;20149;-74
2021/12/28 05:54:29;;;;;;;24.52;3.53;;;;;;;10.00;100.00;99014.75;5046963;28;20112;-74
2021/12/28 05:56:56;;;;;;;22.17;3.55;;;;;;;9.98;100.00;99025.44;5034753;28;20053;-74
2021/12/28 05:59:22;;;;;;;22.98;3.58;;;;;;;9.96;100.00;99025.13;5040089;28;20051;-75
2021/12/28 06:01:49;;;;;;;14.38;3.47;;;;;;;9.93;100.00;99020.44;5032861;28;20609;-74
2021/12/28 06:04:16;;;;;;;10.05;2.72;;;;;;;9.94;100.00;99020.03;5047737;28;20064;-74
2021/12/28 06:06:43;;;;;;;18.73;3.42;;;;;;;9.95;100.00;99007.75;5030812;28;20489;-76
2021/12/28 06:09:09;;;;;;;3.10;1.30;;;;;;;9.90;100.00;99005.53;5035022;28;20053;-75
2021/12/28 06:11:36;;;;;;;23.23;4.07;;;;;;;10.00;100.00;99000.94;5042908;28;20136;-74
2021/12/28 06:14:03;;;;;;;18.67;3.22;;;;;;;9.96;100.00;99003.78;5039663;28;20106;-74
2021/12/28 06:16:31;;;;;;;13.80;3.42;;;;;;;9.90;100.00;99002.75;5041751;28;20077;-75
2021/12/28 06:18:58;;;;;;;14.90;2.95;;;;;;;9.89;100.00;99012.25;5040108;28;20057;-73
2021/12/28 06:21:26;;;;;;;25.50;3.83;;;;;;;9.91;100.00;99007.06;5041117;28;20144;-73
2021/12/28 06:23:52;;;;;;;17.45;3.55;;;;;;;9.84;100.00;98998.19;5027505;28;20049;-74
2021/12/28 06:26:19;;;;;;;16.25;3.10;;;;;;;9.80;100.00;99001.03;5040985;28;20323;-75
2021/12/28 06:28:45;;;;;;;15.95;3.33;;;;;;;9.78;100.00;98999.91;5040479;28;20151;-74
2021/12/28 06:31:12;;;;;;;20.88;3.80;;;;;;;9.75;100.00;98995.25;5037023;28;20560;-74
2021/12/28 06:33:38;;;;;;;18.67;3.55;;;;;;;9.76;100.00;98992.03;5027913;28;20063;-74
2021/12/28 06:36:05;;;;;;;13.75;3.83;;;;;;;9.82;100.00;98992.31;5046342;28;20053;-74
2021/12/28 06:38:32;;;;;;;22.00;3.83;;;;;;;9.86;100.00;98996.53;5033777;28;20057;-74
2021/12/28 06:40:58;;;;;;;19.35;3.55;;;;;;;9.86;100.00;98988.25;5030612;28;20084;-74
2021/12/28 06:43:25;;;;;;;11.35;3.40;;;;;;;9.86;100.00;98993.00;5037819;28;20429;-74
2021/12/28 06:45:54;;;;;;;22.58;3.83;;;;;;;9.94;100.00;98984.09;5040655;28;20181;-77
2021/12/28 06:48:22;;;;;;;15.00;3.55;;;;;;;9.91;100.00;98993.25;5030076;28;20640;-75
2021/12/28 06:50:49;;;;;;;11.15;3.05;;;;;;;9.92;100.00;98991.25;5031692;28;20122;-74
2021/12/28 06:53:16;;;;;;;11.07;3.50;;;;;;;9.94;100.00;98991.59;5041977;28;20061;-75
2021/12/28 06:55:43;;;;;;;14.10;4.05;;;;;;;9.99;100.00;98985.56;5039661;28;20059;-74
2021/12/28 06:58:09;;;;;;;12.73;3.25;;;;;;;9.92;100.00;98982.97;5035431;28;20144;-74
2021/12/28 07:00:37;;;;;;;11.82;3.20;;;;;;;9.94;100.00;98980.56;5043669;28;20049;-73
2021/12/28 07:03:04;;;;;;;13.80;3.45;;;;;;;9.99;100.00;98980.81;5035986;28;20045;-75
2021/12/28 07:05:31;;;;;;;13.40;4.00;;;;;;;10.03;100.00;98973.19;5035003;28;20049;-74
2021/12/28 07:07:58;;;;;;;11.00;3.72;;;;;;;10.04;100.00;98979.50;5031046;28;20063;-73
2021/12/28 07:10:25;;;;;;;15.18;3.65;;;;;;;10.00;100.00;98971.28;5031271;28;20080;-74
2021/12/28 07:12:51;;;;;;;19.20;4.25;;;;;;;10.02;100.00;98979.94;5036451;28;20132;-74
2021/12/28 07:15:18;;;;;;;13.30;4.03;;;;;;;10.03;100.00;98973.19;5044993;28;20053;-74
2021/12/28 07:17:45;;;;;;;13.45;2.72;;;;;;;9.96;100.00;98970.63;5044997;28;20051;-74
2021/12/28 07:20:14;;;;;;;13.07;3.40;;;;;;;10.10;100.00;98973.03;5037459;28;20049;-74
2021/12/28 07:22:42;;;;;;;14.43;3.80;;;;;;;10.08;100.00;98975.47;5050292;28;20056;-74
2021/12/28 07:25:09;;;;;;;13.82;3.50;;;;;;;10.12;100.00;98978.91;5041624;28;20068;-74
2021/12/28 07:27:37;;;;;;;16.35;4.45;;;;;;;10.16;100.00;98974.06;5046882;28;20095;-74
2021/12/28 07:30:07;;;;;;;12.18;2.63;;;;;;;10.18;100.00;98988.22;5031924;28;20077;-74
2021/12/28 07:32:34;;;;;;;15.75;3.67;;;;;;;10.20;100.00;98979.50;5032901;28;20656;-74
2021/12/28 07:35:00;;;;;;;13.30;3.75;;;;;;;10.30;100.00;98976.44;5042511;28;20049;-74
2021/12/28 07:37:27;;;;;;;12.88;3.70;;;;;;;10.28;100.00;98978.09;5033739;28;20064;-75
2021/12/28 07:39:53;;;;;;;1.17;0.80;;;;;;;10.23;100.00;98970.34;5043656;28;20048;-75
2021/12/28 07:42:20;;;;;;;4.32;1.67;;;;;;;10.25;100.00;98965.91;5041038;28;20531;-74
2021/12/28 07:44:49;;;;;;;8.25;2.35;;;;;;;10.35;100.00;98967.63;5040484;28;20424;-74
2021/12/28 07:47:16;;;;;;;13.18;4.45;;;;;;;10.37;100.00;98965.16;5043094;28;20053;-74
2021/12/28 07:49:43;;;;;;;2.95;1.40;;;;;;;10.34;100.00;98966.06;5031124;28;20405;-75
2021/12/28 07:52:09;;;;;;;11.27;3.55;;;;;;;10.39;100.00;98968.28;5033926;28;20139;-76
2021/12/28 07:54:36;;;;;;;9.63;3.42;;;;;;;10.35;100.00;98964.06;5048946;28;20052;-74
2021/12/28 07:57:03;;;;;;;8.32;2.35;;;;;;;10.37;100.00;98973.47;5044868;28;20128;-74
2021/12/28 07:59:29;;;;;;;3.38;1.10;;;;;;;10.34;100.00;98968.84;5031577;28;20140;-73
2021/12/28 08:01:56;;;;;;;11.77;3.53;;;;;;;10.39;100.00;98970.25;5035960;28;20113;-74
2021/12/28 08:04:24;;;;;;;10.88;2.58;;;;;;;10.35;100.00;98962.09;5028661;28;20056;-74
2021/12/28 08:06:50;;;;;;;8.38;2.65;;;;;;;10.31;100.00;98961.41;5030913;28;20115;-74
2021/12/28 08:09:17;;;;;;;8.20;3.17;;;;;;;10.34;100.00;98959.75;5036496;28;20413;-75
2021/12/28 08:11:44;;;;;;;6.15;2.00;;;;;;;10.34;100.00;98951.47;5042847;28;20056;-72
2021/12/28 08:14:11;;;;;;;12.80;2.75;;;;;;;10.31;100.00;98952.34;5038881;28;20091;-73
2021/12/28 08:16:37;;;;;;;7.38;2.72;;;;;;;10.31;100.00;98953.13;5030599;28;20077;-72
2021/12/28 08:19:06;;;;;;;6.43;1.90;;;;;;;10.29;100.00;98952.78;5028009;28;20053;-73
2021/12/28 08:21:42;;;;;;;7.43;2.05;;;;;;;10.28;100.00;98961.50;5027682;28;20065;-73
2021/12/28 08:24:09;;;;;;;9.95;2.75;;;;;;;10.29;100.00;98963.81;5029732;28;20148;-74
2021/12/28 08:26:35;;;;;;;11.27;2.85;;;;;;;10.24;100.00;98966.34;5028300;28;20136;-74
2021/12/28 08:29:02;;;;;;;9.43;2.90;;;;;;;10.25;100.00;98963.16;5037401;28;20478;-67
2021/12/28 08:31:29;;;;;;;10.48;2.67;;;;;;;10.31;100.00;98966.94;5028549;28;20530;-70
2021/12/28 08:33:56;;;;;;;7.05;2.63;;;;;;;10.33;100.00;98969.28;5039381;28;20068;-72
2021/12/28 08:36:23;;;;;;;8.35;2.58;;;;;;;10.33;100.00;98975.56;5045752;28;20529;-75
2021/12/28 08:38:49;;;;;;;6.45;1.70;;;;;;;10.28;100.00;98987.16;5046926;28;20049;-76
2021/12/28 08:41:17;;;;;;;7.47;2.28;;;;;;;10.29;100.00;98993.44;5033640;28;20053;-76
2021/12/28 08:43:46;;;;;;;7.53;2.22;;;;;;;10.28;100.00;98994.66;5040712;28;20509;-77
2021/12/28 08:46:14;;;;;;;8.00;1.35;;;;;;;10.33;100.00;99000.44;5028703;28;20136;-77
2021/12/28 08:48:41;;;;;;;3.53;1.40;;;;;;;10.35;100.00;98991.72;5040348;28;20077;-76
2021/12/28 08:51:08;;;;;;;9.88;2.40;;;;;;;10.41;100.00;98999.03;5036764;28;20049;-76
2021/12/28 08:53:35;;;;;;;6.95;2.30;;;;;;;10.40;100.00;98994.72;5045018;28;20049;-77
2021/12/28 08:56:02;;;;;;;8.07;1.80;;;;;;;10.44;100.00;98994.63;5032745;28;20588;-76
2021/12/28 08:58:29;;;;;;;10.75;1.45;;;;;;;10.41;100.00;98979.69;5030664;28;20148;-77
2021/12/28 09:00:56;;;;;;;8.05;2.15;;;;;;;10.50;100.00;98982.56;5038817;28;20140;-75
2021/12/28 09:03:23;;;;;;;1.75;0.75;;;;;;;10.46;100.00;98972.84;5028141;28;20647;-76
2021/12/28 09:05:49;;;;;;;4.25;2.00;;;;;;;10.57;100.00;98967.00;5036321;28;20512;-77
2021/12/28 09:08:18;;;;;;;10.30;2.40;;;;;;;10.63;100.00;98959.72;5029072;28;20740;-76
2021/12/28 09:10:46;;;;;;;7.47;2.40;;;;;;;10.61;100.00;98960.16;5032276;28;20050;-76
2021/12/28 09:13:14;;;;;;;6.85;2.30;;;;;;;10.66;100.00;98958.84;5043560;28;20076;-77
2021/12/28 09:15:43;;;;;;;8.35;1.60;;;;;;;10.61;100.00;98951.09;5042621;28;20119;-76
2021/12/28 09:18:10;;;;;;;3.83;1.42;;;;;;;10.67;100.00;98955.66;5040380;28;20079;-76
2021/12/28 09:20:36;;;;;;;4.15;1.80;;;;;;;10.71;100.00;98938.94;5041468;28;20048;-75
2021/12/28 09:23:07;;;;;;;7.95;2.42;;;;;;;10.72;100.00;98940.47;5034528;28;20064;-77
2021/12/28 09:25:34;;;;;;;3.95;1.40;;;;;;;10.75;100.00;98942.38;5028888;28;20052;-76
2021/12/28 09:28:00;;;;;;;7.38;2.15;;;;;;;10.83;100.00;98952.03;5030096;28;20425;-77
2021/12/28 09:30:27;;;;;;;4.35;1.65;;;;;;;10.83;100.00;98960.31;5028371;28;20061;-76
2021/12/28 09:32:54;;;;;;;4.55;1.45;;;;;;;10.86;100.00;98962.22;5034027;28;20123;-76
2021/12/28 09:35:21;;;;;;;4.70;1.83;;;;;;;10.95;100.00;98949.25;5028037;28;20060;-76
2021/12/28 09:37:47;;;;;;;3.95;1.17;;;;;;;10.92;100.00;98949.34;5027063;28;20057;-76
2021/12/28 09:40:15;;;;;;;7.25;1.48;;;;;;;10.95;100.00;98949.25;5028513;28;20077;-75
2021/12/28 09:42:42;;;;;;;1.45;0.82;;;;;;;10.97;100.00;98954.34;5032576;28;20569;-76
2021/12/28 09:45:11;;;;;;;2.60;1.20;;;;;;;11.09;100.00;98948.81;5035132;28;20051;-76
2021/12/28 09:47:41;;;;;;;6.15;1.80;;;;;;;11.09;100.00;98953.56;5034491;28;20049;-76
2021/12/28 09:50:11;;;;;;;9.68;2.20;;;;;;;11.14;100.00;98951.03;5029916;28;20124;-75
2021/12/28 09:52:43;;;;;;;1.58;0.95;;;;;;;11.04;100.00;98946.63;5033409;28;20076;-75
2021/12/28 09:55:10;;;;;;;1.77;0.75;;;;;;;11.18;100.00;98946.16;5033509;28;20048;-76
2021/12/28 09:57:37;;;;;;;1.55;0.82;;;;;;;11.21;100.00;98941.72;5033551;28;20563;-76
2021/12/28 10:00:07;;;;;;;1.73;0.65;;;;;;;11.24;100.00;98943.63;5033989;28;20092;-74
2021/12/28 10:02:36;;;;;;;3.58;1.45;;;;;;;11.25;100.00;98934.09;5030343;28;20167;-75
2021/12/28 10:05:09;;;;;;;1.95;1.25;;;;;;;11.30;100.00;98939.06;5031383;28;20048;-75
2021/12/28 10:07:45;;;;;;;0.55;0.50;;;;;;;11.28;100.00;98934.00;5028646;28;20052;-76
2021/12/28 10:10:11;;;;;;;4.50;1.45;;;;;;;11.31;100.00;98926.78;5031219;28;20052;-77
2021/12/28 10:12:44;;;;;;;2.13;1.92;;;;;;;11.38;100.00;98926.53;5027653;28;20502;-76
2021/12/28 10:15:18;;;;;;;2.75;1.05;;;;;;;11.34;100.00;98926.66;5026299;28;20060;-75
2021/12/28 10:17:46;;;;;;;0.40;0.40;;;;;;;11.40;100.00;98915.78;5034987;28;20055;-76
2021/12/28 10:20:23;;;;;;;3.45;1.15;;;;;;;11.42;100.00;98918.91;5034368;28;20591;-76
2021/12/28 10:22:58;;;;;;;0.93;0.77;;;;;;;11.35;100.00;98916.34;5030435;28;20519;-76
2021/12/28 10:25:29;;;;;;;2.67;1.20;;;;;;;11.23;100.00;98914.38;5036258;28;20528;-76
2021/12/28 10:27:59;;;;;;;5.72;1.38;;;;;;;11.12;100.00;98916.72;5033932;28;20053;-75
2021/12/28 10:30:30;;;;;;;5.07;1.30;;;;;;;11.12;100.00;98913.94;5030206;28;20127;-76
2021/12/28 10:32:59;;;;;;;1.92;1.20;;;;;;;11.15;100.00;98907.53;5027226;28;20541;-76
2021/12/28 10:35:29;;;;;;;1.45;0.60;;;;;;;11.07;100.00;98904.19;5034307;28;20098;-76
2021/12/28 10:38:02;;;;;;;0.95;0.73;;;;;;;10.95;100.00;98895.91;5039186;28;20096;-76
2021/12/28 10:40:35;;;;;;;4.25;1.10;;;;;;;10.93;100.00;98896.34;5032560;28;20532;-75
2021/12/28 10:43:12;;;;;;;5.75;1.60;;;;;;;10.88;100.00;98890.59;5027196;28;20183;-76
2021/12/28 10:45:44;;;;;;;4.40;1.52;;;;;;;10.83;100.00;98882.84;5027350;28;20045;-76
2021/12/28 10:48:20;;;;;;;3.38;1.35;;;;;;;10.74;100.00;98877.19;5029532;28;20713;-75
2021/12/28 10:51:04;;;;;;;2.75;1.40;;;;;;;10.74;100.00;98866.13;5025724;28;20133;-77
2021/12/28 10:56:54;;;;;;;1.73;0.85;;;;;;;10.64;100.00;98861.72;5029892;28;20140;-76
2021/12/28 10:59:24;;;;;;;2.17;1.05;;;;;;;10.61;100.00;98859.81;5047552;28;20063;-76
2021/12/28 11:01:54;;;;;;;2.67;1.50;;;;;;;10.69;100.00;98850.88;5036264;28;20052;-75
2021/12/28 11:04:32;;;;;;;1.15;1.05;;;;;;;10.60;100.00;98844.47;5027038;28;20081;-77
2021/12/28 11:07:04;;;;;;;2.70;1.52;;;;;;;10.69;100.00;98839.06;5030310;28;20055;-76
2021/12/28 11:09:30;;;;;;;3.05;1.25;;;;;;;10.59;100.00;98827.09;5041641;28;20144;-76
2021/12/28 11:11:58;;;;;;;1.05;0.68;;;;;;;10.60;100.00;98834.19;5013272;28;20531;-75
2021/12/28 11:14:27;;;;;;;1.75;0.98;;;;;;;10.71;100.00;98840.16;5018580;28;20176;-76
2021/12/28 11:17:00;;;;;;;1.52;0.63;;;;;;;10.73;100.00;98829.41;5023894;28;20045;-76
2021/12/28 11:19:32;;;;;;;1.15;0.85;;;;;;;10.62;100.00;98830.94;5037626;28;20190;-76
2021/12/28 11:22:03;;;;;;;0.55;0.55;;;;;;;10.71;100.00;98839.38;5027434;28;20053;-77
2021/12/28 11:24:32;;;;;;;2.85;1.15;;;;;;;10.72;100.00;98830.63;5038053;28;20067;-75
2021/12/28 11:27:00;;;;;;;2.00;1.30;;;;;;;10.79;100.00;98813.03;5035805;28;20081;-76
2021/12/28 11:29:47;;;;;;;4.05;1.70;;;;;;;10.76;100.00;98802.88;5031303;28;20586;-77
2021/12/28 11:32:17;;;;;;;1.75;0.60;;;;;;;10.71;100.00;98817.25;5030616;28;20095;-77
2021/12/28 11:34:45;;;;;;;2.55;1.30;;;;;;;10.74;100.00;98805.28;5038407;28;20113;-77